sensor_id;sensor_type;location;lat;lon;timestamp;pressure;altitude;pressure_sealevel;temperature;humidity
43161;BME280;40968;52.342;5.528;2023-04-16T00:01:16;102141.84;;;7.52;86.31
43161;BME280;40968;52.342;5.528;2023-04-16T00:03:43;102163.63;;;7.63;86.38
43161;BME280;40968;52.342;5.528;2023-04-16T00:06:10;102108.66;;;7.37;86.24
43161;BME280;40968;52.342;5.528;2023-04-16T00:08:36;102175.75;;;7.72;86.37
43161;BME280;40968;52.342;5.528;2023-04-16T00:11:04;102106.00;;;7.37;86.26
43161;BME280;40968;52.342;5.528;2023-04-16T00:13:32;102041.75;;;6.99;86.36
43161;BME280;40968;52.342;5.528;2023-04-16T00:15:59;101945.78;;;6.32;86.26
43161;BME280;40968;52.342;5.528;2023-04-16T00:18:26;102204.09;;;7.96;86.34
43161;BME280;40968;52.342;5.528;2023-04-16T00:20:52;102123.38;;;7.47;86.27
43161;BME280;40968;52.342;5.528;2023-04-16T00:23:19;102145.50;;;7.49;86.38
43161;BME280;40968;52.342;5.528;2023-04-16T00:25:46;101877.97;;;5.95;86.44
43161;BME280;40968;52.342;5.528;2023-04-16T00:28:13;102230.28;;;8.09;86.82
43161;BME280;40968;52.342;5.528;2023-04-16T00:30:40;102152.97;;;7.63;86.80
43161;BME280;40968;52.342;5.528;2023-04-16T00:33:07;102131.44;;;7.45;86.85
43161;BME280;40968;52.342;5.528;2023-04-16T00:35:33;102234.78;;;8.07;86.98
43161;BME280;40968;52.342;5.528;2023-04-16T00:38:00;102227.66;;;8.07;86.99
43161;BME280;40968;52.342;5.528;2023-04-16T00:40:27;102174.78;;;7.73;87.04
43161;BME280;40968;52.342;5.528;2023-04-16T00:42:54;102236.53;;;8.08;87.09
43161;BME280;40968;52.342;5.528;2023-04-16T00:45:20;102234.75;;;8.08;86.90
43161;BME280;40968;52.342;5.528;2023-04-16T00:47:48;102228.53;;;8.08;87.20
43161;BME280;40968;52.342;5.528;2023-04-16T00:50:15;102175.84;;;7.69;87.22
43161;BME280;40968;52.342;5.528;2023-04-16T00:52:42;102181.06;;;7.72;87.18
43161;BME280;40968;52.342;5.528;2023-04-16T00:55:11;102238.41;;;8.06;87.32
43161;BME280;40968;52.342;5.528;2023-04-16T00:57:37;102174.00;;;7.71;87.08
43161;BME280;40968;52.342;5.528;2023-04-16T01:00:05;102133.22;;;7.45;87.15
43161;BME280;40968;52.342;5.528;2023-04-16T01:02:33;102235.78;;;8.04;87.24
43161;BME280;40968;52.342;5.528;2023-04-16T01:05:01;102234.94;;;8.04;87.50
43161;BME280;40968;52.342;5.528;2023-04-16T01:07:28;102240.28;;;8.04;87.46
43161;BME280;40968;52.342;5.528;2023-04-16T01:09:55;102244.63;;;8.06;87.40
43161;BME280;40968;52.342;5.528;2023-04-16T01:12:22;102240.94;;;8.09;87.37
43161;BME280;40968;52.342;5.528;2023-04-16T01:14:49;102238.28;;;8.09;87.46
43161;BME280;40968;52.342;5.528;2023-04-16T01:17:15;101843.06;;;5.79;87.01
43161;BME280;40968;52.342;5.528;2023-04-16T01:19:42;102233.06;;;8.06;87.47
43161;BME280;40968;52.342;5.528;2023-04-16T01:22:10;102192.22;;;7.82;87.36
43161;BME280;40968;52.342;5.528;2023-04-16T01:24:38;102129.50;;;7.49;87.53
43161;BME280;40968;52.342;5.528;2023-04-16T01:27:04;102224.25;;;8.04;87.63
43161;BME280;40968;52.342;5.528;2023-04-16T01:29:31;101955.22;;;6.41;87.48
43161;BME280;40968;52.342;5.528;2023-04-16T01:31:58;102243.06;;;8.01;87.62
43161;BME280;40968;52.342;5.528;2023-04-16T01:34:24;102211.66;;;7.85;87.72
43161;BME280;40968;52.342;5.528;2023-04-16T01:36:51;102234.06;;;8.03;87.77
43161;BME280;40968;52.342;5.528;2023-04-16T01:39:19;102102.34;;;7.17;87.78
43161;BME280;40968;52.342;5.528;2023-04-16T01:41:45;102241.25;;;8.01;87.90
43161;BME280;40968;52.342;5.528;2023-04-16T01:44:12;102245.59;;;8.04;88.06
43161;BME280;40968;52.342;5.528;2023-04-16T01:46:39;102072.63;;;7.04;87.86
43161;BME280;40968;52.342;5.528;2023-04-16T01:49:05;102171.78;;;7.60;87.81
43161;BME280;40968;52.342;5.528;2023-04-16T01:51:32;102086.50;;;7.12;87.75
43161;BME280;40968;52.342;5.528;2023-04-16T01:53:58;102248.97;;;8.09;87.84
43161;BME280;40968;52.342;5.528;2023-04-16T01:56:26;102203.66;;;7.85;87.83
43161;BME280;40968;52.342;5.528;2023-04-16T01:58:53;102165.44;;;7.62;87.81
43161;BME280;40968;52.342;5.528;2023-04-16T02:01:20;102193.13;;;7.82;87.63
43161;BME280;40968;52.342;5.528;2023-04-16T02:03:46;102241.88;;;8.08;87.64
43161;BME280;40968;52.342;5.528;2023-04-16T02:06:13;102231.19;;;8.08;87.84
43161;BME280;40968;52.342;5.528;2023-04-16T02:08:40;102179.34;;;7.71;87.66
43161;BME280;40968;52.342;5.528;2023-04-16T02:11:07;101978.00;;;6.48;87.57
43161;BME280;40968;52.342;5.528;2023-04-16T02:13:35;102199.25;;;7.84;87.85
43161;BME280;40968;52.342;5.528;2023-04-16T02:16:02;102148.06;;;7.52;87.59
43161;BME280;40968;52.342;5.528;2023-04-16T02:18:28;102237.53;;;8.05;87.88
43161;BME280;40968;52.342;5.528;2023-04-16T02:20:57;102129.81;;;7.41;87.73
43161;BME280;40968;52.342;5.528;2023-04-16T02:23:23;102182.06;;;7.69;87.90
43161;BME280;40968;52.342;5.528;2023-04-16T02:25:50;102238.41;;;8.06;87.99
43161;BME280;40968;52.342;5.528;2023-04-16T02:28:16;102216.56;;;7.96;87.85
43161;BME280;40968;52.342;5.528;2023-04-16T02:30:44;101998.66;;;6.65;87.86
43161;BME280;40968;52.342;5.528;2023-04-16T02:33:11;102239.34;;;8.05;88.08
43161;BME280;40968;52.342;5.528;2023-04-16T02:35:38;102086.72;;;7.08;88.03
43161;BME280;40968;52.342;5.528;2023-04-16T02:38:05;102237.53;;;8.05;87.96
43161;BME280;40968;52.342;5.528;2023-04-16T02:40:32;102227.66;;;8.07;87.97
43161;BME280;40968;52.342;5.528;2023-04-16T02:42:59;102177.44;;;7.73;87.76
43161;BME280;40968;52.342;5.528;2023-04-16T02:45:26;102245.38;;;8.10;87.72
43161;BME280;40968;52.342;5.528;2023-04-16T02:47:54;102187.88;;;7.79;87.77
43161;BME280;40968;52.342;5.528;2023-04-16T02:50:20;102246.28;;;8.09;87.69
43161;BME280;40968;52.342;5.528;2023-04-16T02:52:47;102243.63;;;8.09;87.85
43161;BME280;40968;52.342;5.528;2023-04-16T02:55:13;102241.88;;;8.08;87.82
43161;BME280;40968;52.342;5.528;2023-04-16T02:57:40;102161.81;;;7.63;87.86
43161;BME280;40968;52.342;5.528;2023-04-16T03:00:08;102126.47;;;7.36;87.86
43161;BME280;40968;52.342;5.528;2023-04-16T03:02:34;102250.72;;;8.10;88.10
43161;BME280;40968;52.342;5.528;2023-04-16T03:05:03;102198.81;;;7.73;88.00
43161;BME280;40968;52.342;5.528;2023-04-16T03:07:30;102242.19;;;8.00;88.04
43161;BME280;40968;52.342;5.528;2023-04-16T03:09:56;102215.56;;;7.76;88.11
43161;BME280;40968;52.342;5.528;2023-04-16T03:12:23;102256.44;;;8.01;88.37
43161;BME280;40968;52.342;5.528;2023-04-16T03:14:50;102251.94;;;8.01;88.34
43161;BME280;40968;52.342;5.528;2023-04-16T03:17:16;102173.13;;;7.48;88.18
43161;BME280;40968;52.342;5.528;2023-04-16T03:19:43;102262.63;;;8.01;88.21
43161;BME280;40968;52.342;5.528;2023-04-16T03:22:12;102270.56;;;8.03;88.35
43161;BME280;40968;52.342;5.528;2023-04-16T03:24:38;102268.72;;;8.05;88.33
43161;BME280;40968;52.342;5.528;2023-04-16T03:27:05;102269.72;;;8.02;88.22
43161;BME280;40968;52.342;5.528;2023-04-16T03:29:31;102213.34;;;7.66;88.19
43161;BME280;40968;52.342;5.528;2023-04-16T03:31:58;102232.72;;;7.71;88.29
43161;BME280;40968;52.342;5.528;2023-04-16T03:34:25;102268.09;;;7.98;88.40
43161;BME280;40968;52.342;5.528;2023-04-16T03:36:51;102237.81;;;7.77;88.33
43161;BME280;40968;52.342;5.528;2023-04-16T03:39:19;102266.34;;;7.97;88.41
43161;BME280;40968;52.342;5.528;2023-04-16T03:41:46;102265.50;;;7.96;88.21
43161;BME280;40968;52.342;5.528;2023-04-16T03:44:12;102269.09;;;7.95;88.33
43161;BME280;40968;52.342;5.528;2023-04-16T03:46:39;102161.25;;;7.33;88.18
43161;BME280;40968;52.342;5.528;2023-04-16T03:49:06;102222.81;;;7.73;88.28
43161;BME280;40968;52.342;5.528;2023-04-16T03:51:32;102275.19;;;7.99;88.10
43161;BME280;40968;52.342;5.528;2023-04-16T03:53:59;102235.38;;;7.71;88.11
43161;BME280;40968;52.342;5.528;2023-04-16T03:56:27;102131.91;;;7.11;88.07
43161;BME280;40968;52.342;5.528;2023-04-16T03:58:53;102283.13;;;8.01;87.95
43161;BME280;40968;52.342;5.528;2023-04-16T04:01:20;102212.53;;;7.63;87.95
43161;BME280;40968;52.342;5.528;2023-04-16T04:03:46;102255.81;;;7.94;87.92
43161;BME280;40968;52.342;5.528;2023-04-16T04:06:13;102268.16;;;7.96;87.92
43161;BME280;40968;52.342;5.528;2023-04-16T04:08:39;102196.09;;;7.52;87.84
43161;BME280;40968;52.342;5.528;2023-04-16T04:11:06;102281.38;;;8.00;88.03
43161;BME280;40968;52.342;5.528;2023-04-16T04:13:34;102285.66;;;8.04;88.10
43161;BME280;40968;52.342;5.528;2023-04-16T04:16:00;102289.09;;;8.07;87.94
43161;BME280;40968;52.342;5.528;2023-04-16T04:18:27;102293.50;;;8.08;87.81
43161;BME280;40968;52.342;5.528;2023-04-16T04:20:53;102135.94;;;7.21;87.79
43161;BME280;40968;52.342;5.528;2023-04-16T04:23:20;102285.41;;;8.10;87.72
43161;BME280;40968;52.342;5.528;2023-04-16T04:25:47;102250.94;;;7.82;87.63
43161;BME280;40968;52.342;5.528;2023-04-16T04:28:13;102258.81;;;7.85;87.64
43161;BME280;40968;52.342;5.528;2023-04-16T04:30:41;102297.94;;;8.08;87.84
43161;BME280;40968;52.342;5.528;2023-04-16T04:33:08;102186.50;;;7.46;87.96
43161;BME280;40968;52.342;5.528;2023-04-16T04:35:34;102227.38;;;7.71;87.78
43161;BME280;40968;52.342;5.528;2023-04-16T04:38:01;102240.47;;;7.77;87.86
43161;BME280;40968;52.342;5.528;2023-04-16T04:40:28;102237.91;;;7.74;87.90
43161;BME280;40968;52.342;5.528;2023-04-16T04:42:55;102293.44;;;8.10;87.86
43161;BME280;40968;52.342;5.528;2023-04-16T04:45:21;102301.31;;;8.13;87.98
43161;BME280;40968;52.342;5.528;2023-04-16T04:47:50;102314.91;;;8.07;88.05
43161;BME280;40968;52.342;5.528;2023-04-16T04:50:17;102258.09;;;7.81;88.14
43161;BME280;40968;52.342;5.528;2023-04-16T04:52:44;102258.97;;;7.82;88.18
43161;BME280;40968;52.342;5.528;2023-04-16T04:55:10;102304.13;;;8.10;88.32
43161;BME280;40968;52.342;5.528;2023-04-16T04:57:39;102310.31;;;8.10;88.18
43161;BME280;40968;52.342;5.528;2023-04-16T05:00:07;102227.84;;;7.58;88.13
43161;BME280;40968;52.342;5.528;2023-04-16T05:02:33;102083.38;;;6.79;88.02
43161;BME280;40968;52.342;5.528;2023-04-16T05:05:01;102318.16;;;8.15;88.22
43161;BME280;40968;52.342;5.528;2023-04-16T05:07:28;102242.94;;;7.82;88.01
43161;BME280;40968;52.342;5.528;2023-04-16T05:09:55;102178.94;;;7.36;88.11
43161;BME280;40968;52.342;5.528;2023-04-16T05:12:21;102158.19;;;7.20;88.04
43161;BME280;40968;52.342;5.528;2023-04-16T05:14:48;102301.53;;;8.07;88.09
43161;BME280;40968;52.342;5.528;2023-04-16T05:17:14;102210.22;;;7.54;88.03
43161;BME280;40968;52.342;5.528;2023-04-16T05:19:41;102320.88;;;8.13;88.09
43161;BME280;40968;52.342;5.528;2023-04-16T05:22:09;102317.25;;;8.14;88.14
43161;BME280;40968;52.342;5.528;2023-04-16T05:24:36;102173.84;;;7.29;88.06
43161;BME280;40968;52.342;5.528;2023-04-16T05:27:03;102319.88;;;8.16;88.00
43161;BME280;40968;52.342;5.528;2023-04-16T05:29:29;102238.84;;;7.73;88.05
43161;BME280;40968;52.342;5.528;2023-04-16T05:31:56;102320.69;;;8.18;87.98
43161;BME280;40968;52.342;5.528;2023-04-16T05:34:23;102328.75;;;8.17;87.89
43161;BME280;40968;52.342;5.528;2023-04-16T05:36:49;102202.47;;;7.48;88.09
43161;BME280;40968;52.342;5.528;2023-04-16T05:39:17;102326.03;;;8.18;88.25
43161;BME280;40968;52.342;5.528;2023-04-16T05:41:44;102270.53;;;7.82;88.00
43161;BME280;40968;52.342;5.528;2023-04-16T05:44:11;102320.75;;;8.17;88.36
43161;BME280;40968;52.342;5.528;2023-04-16T05:46:37;102286.16;;;7.91;88.47
43161;BME280;40968;52.342;5.528;2023-04-16T05:49:04;102254.00;;;7.72;88.44
43161;BME280;40968;52.342;5.528;2023-04-16T05:51:30;102249.56;;;7.71;88.48
43161;BME280;40968;52.342;5.528;2023-04-16T05:53:57;102248.31;;;7.58;88.45
43161;BME280;40968;52.342;5.528;2023-04-16T05:56:25;102334.03;;;8.18;88.60
43161;BME280;40968;52.342;5.528;2023-04-16T05:58:52;102314.09;;;8.05;88.49
43161;BME280;40968;52.342;5.528;2023-04-16T06:01:18;102273.91;;;7.86;88.39
43161;BME280;40968;52.342;5.528;2023-04-16T06:03:45;102344.66;;;8.20;88.34
43161;BME280;40968;52.342;5.528;2023-04-16T06:06:12;102164.66;;;7.14;88.54
43161;BME280;40968;52.342;5.528;2023-04-16T06:08:38;102119.50;;;6.88;88.43
43161;BME280;40968;52.342;5.528;2023-04-16T06:11:05;102318.63;;;8.03;88.55
43161;BME280;40968;52.342;5.528;2023-04-16T06:13:33;102350.75;;;8.23;88.61
43161;BME280;40968;52.342;5.528;2023-04-16T06:15:59;102358.91;;;8.20;88.54
43161;BME280;40968;52.342;5.528;2023-04-16T06:18:26;102305.53;;;7.96;88.51
43161;BME280;40968;52.342;5.528;2023-04-16T06:20:52;102260.31;;;7.70;88.42
43161;BME280;40968;52.342;5.528;2023-04-16T06:23:19;102310.81;;;7.98;88.51
43161;BME280;40968;52.342;5.528;2023-04-16T06:25:46;102308.22;;;7.96;88.53
43161;BME280;40968;52.342;5.528;2023-04-16T06:28:12;102343.13;;;8.14;88.52
43161;BME280;40968;52.342;5.528;2023-04-16T06:30:40;102353.56;;;8.20;88.63
43161;BME280;40968;52.342;5.528;2023-04-16T06:33:07;102369.38;;;8.25;88.42
43161;BME280;40968;52.342;5.528;2023-04-16T06:35:33;102278.84;;;7.74;88.51
43161;BME280;40968;52.342;5.528;2023-04-16T06:38:00;102371.00;;;8.29;88.32
43161;BME280;40968;52.342;5.528;2023-04-16T06:40:27;102331.06;;;8.04;88.48
43161;BME280;40968;52.342;5.528;2023-04-16T06:42:55;102380.69;;;8.32;88.06
43161;BME280;40968;52.342;5.528;2023-04-16T06:45:21;102311.06;;;7.92;88.38
43161;BME280;40968;52.342;5.528;2023-04-16T06:47:49;102286.63;;;7.79;88.20
43161;BME280;40968;52.342;5.528;2023-04-16T06:50:16;102232.06;;;7.42;88.15
43161;BME280;40968;52.342;5.528;2023-04-16T06:52:43;102379.75;;;8.33;88.13
43161;BME280;40968;52.342;5.528;2023-04-16T06:55:10;102208.41;;;7.33;88.15
43161;BME280;40968;52.342;5.528;2023-04-16T06:57:36;102392.94;;;8.37;88.03
43161;BME280;40968;52.342;5.528;2023-04-16T07:00:06;102165.63;;;7.12;87.85
43161;BME280;40968;52.342;5.528;2023-04-16T07:02:32;102341.22;;;8.16;87.91
43161;BME280;40968;52.342;5.528;2023-04-16T07:05:00;102325.56;;;8.07;87.98
43161;BME280;40968;52.342;5.528;2023-04-16T07:07:27;102359.81;;;8.19;87.69
43161;BME280;40968;52.342;5.528;2023-04-16T07:09:53;102130.78;;;6.94;87.61
43161;BME280;40968;52.342;5.528;2023-04-16T07:12:20;102393.31;;;8.50;87.56
43161;BME280;40968;52.342;5.528;2023-04-16T07:14:47;102311.53;;;8.02;87.47
43161;BME280;40968;52.342;5.528;2023-04-16T07:17:13;102404.69;;;8.55;87.71
43161;BME280;40968;52.342;5.528;2023-04-16T07:19:40;102367.09;;;8.38;87.54
43161;BME280;40968;52.342;5.528;2023-04-16T07:22:08;102309.81;;;8.01;87.25
43161;BME280;40968;52.342;5.528;2023-04-16T07:24:35;102374.41;;;8.33;87.20
43161;BME280;40968;52.342;5.528;2023-04-16T07:27:01;102423.41;;;8.55;87.16
43161;BME280;40968;52.342;5.528;2023-04-16T07:29:28;102409.25;;;8.53;87.08
43161;BME280;40968;52.342;5.528;2023-04-16T07:31:54;102375.53;;;8.27;87.04
43161;BME280;40968;52.342;5.528;2023-04-16T07:34:21;102413.84;;;8.50;87.06
43161;BME280;40968;52.342;5.528;2023-04-16T07:36:48;102428.75;;;8.55;86.90
43161;BME280;40968;52.342;5.528;2023-04-16T07:39:16;102427.81;;;8.56;86.81
43161;BME280;40968;52.342;5.528;2023-04-16T07:41:42;102172.03;;;7.08;86.70
43161;BME280;40968;52.342;5.528;2023-04-16T07:44:09;102233.66;;;7.46;86.57
43161;BME280;40968;52.342;5.528;2023-04-16T07:46:35;102359.13;;;8.14;86.52
43161;BME280;40968;52.342;5.528;2023-04-16T07:49:02;102394.78;;;8.35;86.27
43161;BME280;40968;52.342;5.528;2023-04-16T07:51:29;102378.16;;;8.28;86.28
43161;BME280;40968;52.342;5.528;2023-04-16T07:53:55;102131.41;;;6.77;85.92
43161;BME280;40968;52.342;5.528;2023-04-16T07:56:23;102401.88;;;8.36;86.16
43161;BME280;40968;52.342;5.528;2023-04-16T07:58:50;102315.63;;;7.88;85.95
43161;BME280;40968;52.342;5.528;2023-04-16T08:01:16;102449.75;;;8.65;86.09
43161;BME280;40968;52.342;5.528;2023-04-16T08:03:43;102457.75;;;8.66;86.08
43161;BME280;40968;52.342;5.528;2023-04-16T08:06:10;102414.13;;;8.42;85.89
43161;BME280;40968;52.342;5.528;2023-04-16T08:08:36;102421.94;;;8.48;85.85
43161;BME280;40968;52.342;5.528;2023-04-16T08:11:03;102470.78;;;8.74;85.71
43161;BME280;40968;52.342;5.528;2023-04-16T08:13:31;102204.34;;;7.22;85.45
43161;BME280;40968;52.342;5.528;2023-04-16T08:15:58;102459.09;;;8.76;85.41
43161;BME280;40968;52.342;5.528;2023-04-16T08:18:24;102462.56;;;8.78;85.31
43161;BME280;40968;52.342;5.528;2023-04-16T08:20:51;102460.66;;;8.82;85.03
43161;BME280;40968;52.342;5.528;2023-04-16T08:23:18;102391.94;;;8.40;84.83
43161;BME280;40968;52.342;5.528;2023-04-16T08:25:44;102413.78;;;8.51;84.79
43161;BME280;40968;52.342;5.528;2023-04-16T08:28:11;102177.13;;;7.14;84.58
43161;BME280;40968;52.342;5.528;2023-04-16T08:30:39;101943.16;;;5.83;84.61
43161;BME280;40968;52.342;5.528;2023-04-16T08:33:05;102475.09;;;8.99;84.72
43161;BME280;40968;52.342;5.528;2023-04-16T08:35:32;102476.84;;;9.00;84.54
43161;BME280;40968;52.342;5.528;2023-04-16T08:37:59;102470.56;;;9.01;84.11
43161;BME280;40968;52.342;5.528;2023-04-16T08:40:27;102427.88;;;8.77;84.35
43161;BME280;40968;52.342;5.528;2023-04-16T08:42:57;102481.81;;;9.09;84.15
43161;BME280;40968;52.342;5.528;2023-04-16T08:45:25;102481.81;;;9.09;84.02
43161;BME280;40968;52.342;5.528;2023-04-16T08:47:53;102482.81;;;9.06;83.97
43161;BME280;40968;52.342;5.528;2023-04-16T08:50:23;102486.38;;;9.07;83.84
43161;BME280;40968;52.342;5.528;2023-04-16T08:52:51;102308.22;;;7.96;83.63
43161;BME280;40968;52.342;5.528;2023-04-16T08:55:20;102488.22;;;9.05;83.72
43161;BME280;40968;52.342;5.528;2023-04-16T08:57:51;102487.31;;;9.06;83.64
43161;BME280;40968;52.342;5.528;2023-04-16T09:00:19;102190.09;;;7.23;83.37
43161;BME280;40968;52.342;5.528;2023-04-16T09:02:46;102485.31;;;9.11;83.72
43161;BME280;40968;52.342;5.528;2023-04-16T09:05:16;102452.63;;;8.82;83.31
43161;BME280;40968;52.342;5.528;2023-04-16T09:07:43;102425.28;;;8.75;83.49
43161;BME280;40968;52.342;5.528;2023-04-16T09:10:10;102297.53;;;7.96;83.44
43161;BME280;40968;52.342;5.528;2023-04-16T09:12:39;102275.50;;;7.91;83.50
43161;BME280;40968;52.342;5.528;2023-04-16T09:15:07;102086.63;;;6.87;83.22
43161;BME280;40968;52.342;5.528;2023-04-16T09:17:35;102498.72;;;9.32;83.21
43161;BME280;40968;52.342;5.528;2023-04-16T09:20:01;102496.84;;;9.34;83.17
43161;BME280;40968;52.342;5.528;2023-04-16T09:22:31;102443.00;;;8.99;82.76
43161;BME280;40968;52.342;5.528;2023-04-16T09:24:58;102501.41;;;9.32;82.80
43161;BME280;40968;52.342;5.528;2023-04-16T09:27:24;102503.94;;;9.35;82.90
43161;BME280;40968;52.342;5.528;2023-04-16T09:29:51;102439.56;;;8.96;82.64
43161;BME280;40968;52.342;5.528;2023-04-16T09:32:23;102438.41;;;9.02;82.61
43161;BME280;40968;52.342;5.528;2023-04-16T09:34:55;102442.66;;;9.08;82.68
43161;BME280;40968;52.342;5.528;2023-04-16T09:37:22;102366.75;;;8.47;82.50
43161;BME280;40968;52.342;5.528;2023-04-16T09:39:56;102464.28;;;9.24;82.18
43161;BME280;40968;52.342;5.528;2023-04-16T09:42:24;102508.63;;;9.50;82.13
43161;BME280;40968;52.342;5.528;2023-04-16T09:44:52;102514.72;;;9.54;82.26
43161;BME280;40968;52.342;5.528;2023-04-16T09:47:20;102515.34;;;9.60;82.09
43161;BME280;40968;52.342;5.528;2023-04-16T09:49:47;102373.69;;;8.73;81.78
43161;BME280;40968;52.342;5.528;2023-04-16T09:52:15;102518.78;;;9.62;81.27
43161;BME280;40968;52.342;5.528;2023-04-16T09:54:46;102516.03;;;9.64;81.42
43161;BME280;40968;52.342;5.528;2023-04-16T09:57:16;102516.78;;;9.68;81.69
43161;BME280;40968;52.342;5.528;2023-04-16T09:59:44;102305.41;;;8.44;81.30
43161;BME280;40968;52.342;5.528;2023-04-16T10:02:11;102498.69;;;9.54;81.30
43161;BME280;40968;52.342;5.528;2023-04-16T10:04:45;102224.88;;;7.88;81.03
43161;BME280;40968;52.342;5.528;2023-04-16T10:07:12;102279.63;;;8.21;80.92
43161;BME280;40968;52.342;5.528;2023-04-16T10:09:39;102527.25;;;9.74;81.03
43161;BME280;40968;52.342;5.528;2023-04-16T10:12:06;102457.63;;;9.33;80.97
43161;BME280;40968;52.342;5.528;2023-04-16T10:14:34;102443.72;;;9.24;80.85
43161;BME280;40968;52.342;5.528;2023-04-16T10:17:02;102529.84;;;9.75;80.78
43161;BME280;40968;52.342;5.528;2023-04-16T10:19:29;102533.44;;;9.74;80.49
43161;BME280;40968;52.342;5.528;2023-04-16T10:21:57;102497.19;;;9.46;80.56
43161;BME280;40968;52.342;5.528;2023-04-16T10:24:24;102518.00;;;9.60;80.82
43161;BME280;40968;52.342;5.528;2023-04-16T10:26:51;102472.69;;;9.35;80.82
43161;BME280;40968;52.342;5.528;2023-04-16T10:29:18;102313.50;;;8.41;80.72
43161;BME280;40968;52.342;5.528;2023-04-16T10:31:48;102457.31;;;9.20;80.86
43161;BME280;40968;52.342;5.528;2023-04-16T10:34:15;102374.16;;;8.83;80.68
43161;BME280;40968;52.342;5.528;2023-04-16T10:36:42;102387.94;;;8.94;80.76
43161;BME280;40968;52.342;5.528;2023-04-16T10:39:17;102547.25;;;9.86;80.38
43161;BME280;40968;52.342;5.528;2023-04-16T10:41:43;102481.63;;;9.56;80.09
43161;BME280;40968;52.342;5.528;2023-04-16T10:44:10;102379.78;;;8.98;79.97
43161;BME280;40968;52.342;5.528;2023-04-16T10:46:38;102539.66;;;9.95;80.09
43161;BME280;40968;52.342;5.528;2023-04-16T10:49:13;102544.09;;;9.96;79.81
43161;BME280;40968;52.342;5.528;2023-04-16T10:51:40;102460.88;;;9.41;79.84
43161;BME280;40968;52.342;5.528;2023-04-16T10:54:22;102517.88;;;9.84;79.74
43161;BME280;40968;52.342;5.528;2023-04-16T10:56:50;102547.59;;;9.99;79.79
43161;BME280;40968;52.342;5.528;2023-04-16T10:59:18;102481.47;;;9.59;79.17
43161;BME280;40968;52.342;5.528;2023-04-16T11:01:46;102514.38;;;9.82;79.60
43161;BME280;40968;52.342;5.528;2023-04-16T11:04:33;102494.19;;;9.75;79.58
43161;BME280;40968;52.342;5.528;2023-04-16T11:07:02;102543.75;;;10.04;79.46
43161;BME280;40968;52.342;5.528;2023-04-16T11:09:43;102547.31;;;10.05;79.61
43161;BME280;40968;52.342;5.528;2023-04-16T11:12:11;102488.94;;;9.72;79.63
43161;BME280;40968;52.342;5.528;2023-04-16T11:14:39;102518.41;;;9.72;79.04
43161;BME280;40968;52.342;5.528;2023-04-16T11:17:06;102506.69;;;9.74;79.04
43161;BME280;40968;52.342;5.528;2023-04-16T11:19:34;102477.13;;;9.57;79.25
43161;BME280;40968;52.342;5.528;2023-04-16T11:22:01;102397.84;;;9.13;79.17
43161;BME280;40968;52.342;5.528;2023-04-16T11:24:28;102540.31;;;10.01;79.38
43161;BME280;40968;52.342;5.528;2023-04-16T11:26:55;102540.22;;;10.04;79.30
43161;BME280;40968;52.342;5.528;2023-04-16T11:29:22;102523.00;;;9.89;78.74
43161;BME280;40968;52.342;5.528;2023-04-16T11:31:49;102541.97;;;10.05;79.20
43161;BME280;40968;52.342;5.528;2023-04-16T11:34:16;102441.84;;;9.47;78.84
43161;BME280;40968;52.342;5.528;2023-04-16T11:36:45;102541.66;;;10.11;79.09
43161;BME280;40968;52.342;5.528;2023-04-16T11:39:12;102548.91;;;10.09;78.71
43161;BME280;40968;52.342;5.528;2023-04-16T11:41:41;102551.72;;;10.06;78.82
43161;BME280;40968;52.342;5.528;2023-04-16T11:44:18;102546.50;;;10.03;78.67
43161;BME280;40968;52.342;5.528;2023-04-16T11:46:46;102302.22;;;8.56;78.58
43161;BME280;40968;52.342;5.528;2023-04-16T11:49:12;102509.09;;;9.81;78.68
43161;BME280;40968;52.342;5.528;2023-04-16T11:51:40;102492.59;;;9.71;78.63
43161;BME280;40968;52.342;5.528;2023-04-16T11:54:08;102555.13;;;10.09;79.00
43161;BME280;40968;52.342;5.528;2023-04-16T11:56:35;102552.53;;;10.08;78.56
43161;BME280;40968;52.342;5.528;2023-04-16T11:59:07;102466.47;;;9.55;78.29
43161;BME280;40968;52.342;5.528;2023-04-16T12:01:34;102469.16;;;9.55;78.05
43161;BME280;40968;52.342;5.528;2023-04-16T12:04:01;102556.28;;;10.04;78.58
43161;BME280;40968;52.342;5.528;2023-04-16T12:06:28;102562.56;;;10.03;78.80
43161;BME280;40968;52.342;5.528;2023-04-16T12:08:56;102351.28;;;8.76;78.88
43161;BME280;40968;52.342;5.528;2023-04-16T12:11:38;102564.59;;;9.98;78.75
43161;BME280;40968;52.342;5.528;2023-04-16T12:14:08;102577.97;;;9.98;78.98
43161;BME280;40968;52.342;5.528;2023-04-16T12:16:35;102542.22;;;9.78;78.87
43161;BME280;40968;52.342;5.528;2023-04-16T12:19:02;102573.03;;;9.88;78.77
43161;BME280;40968;52.342;5.528;2023-04-16T12:21:40;102440.38;;;9.19;78.57
43161;BME280;40968;52.342;5.528;2023-04-16T12:24:08;102536.81;;;9.79;78.54
43161;BME280;40968;52.342;5.528;2023-04-16T12:26:46;102494.91;;;9.58;78.25
43161;BME280;40968;52.342;5.528;2023-04-16T12:29:19;102527.16;;;9.75;78.36
43161;BME280;40968;52.342;5.528;2023-04-16T12:31:48;102571.44;;;10.05;78.52
43161;BME280;40968;52.342;5.528;2023-04-16T12:34:15;102479.47;;;9.65;78.36
43161;BME280;40968;52.342;5.528;2023-04-16T12:36:42;102530.19;;;9.88;77.70
43161;BME280;40968;52.342;5.528;2023-04-16T12:39:09;102589.63;;;10.17;77.61
43161;BME280;40968;52.342;5.528;2023-04-16T12:41:38;102438.91;;;9.33;77.60
43161;BME280;40968;52.342;5.528;2023-04-16T12:44:08;102539.81;;;9.92;77.99
43161;BME280;40968;52.342;5.528;2023-04-16T12:46:37;102343.19;;;8.77;77.99
43161;BME280;40968;52.342;5.528;2023-04-16T12:49:04;102540.63;;;9.94;77.68
43161;BME280;40968;52.342;5.528;2023-04-16T12:51:30;102577.03;;;10.19;77.51
43161;BME280;40968;52.342;5.528;2023-04-16T12:53:57;102591.38;;;10.18;77.08
43161;BME280;40968;52.342;5.528;2023-04-16T12:56:24;102551.03;;;10.01;77.14
43161;BME280;40968;52.342;5.528;2023-04-16T12:58:51;102584.00;;;10.23;77.03
43161;BME280;40968;52.342;5.528;2023-04-16T13:01:19;102154.38;;;7.72;76.65